MSC Maeva — H9TF — position and weather

sailwx.info

Track history (hours):
 
Tides and Currents Weather Stations Pressure Air Temp Water Temp Dewpoint Dewpoint Depression Visibility Wind Speed Wind Dir Waves Ship Positions

MSC Maeva

Last reported at 2015-Apr-28 10:10 UTC. Time now 2015-Apr-28 11:54 UTC.
Position N 01°16' E 103°46'.

Type: Ship (hazmat cat A). MMSI: 371851000.

Date/timePositionNaut miles runAvg speedWind from/ knotsBaromVisibWave heightAir tempDewpointWater temp
2015-Apr-28 10:10N 01°16' E 103°46'0 0.0
2015-Apr-28 09:16N 01°16' E 103°46'0 0.0
2015-Apr-28 08:28N 01°16' E 103°46'0 0.0
2015-Apr-28 07:33N 01°16' E 103°46'6 5.4
2015-Apr-28 06:29N 01°13' E 103°41'11 0.5
2015-Apr-27 08:15N 01°12' E 103°53'811.3
2015-Apr-27 07:33N 01°15' E 103°60'  
2015-Apr-23 13:15N 22°08' E 114°15'1310.7
2015-Apr-23 12:04N 22°17' E 114°06'16 9.7
2015-Apr-23 10:28N 22°27' E 113°53'1 0.1
2015-Apr-22 19:04N 22°28' E 113°52'4 7.4
2015-Apr-22 18:33N 22°24' E 113°54'11 9.2
2015-Apr-22 17:20N 22°20' E 114°05'910.8
2015-Apr-22 16:32N 22°13' E 114°10'5 4.2
2015-Apr-22 15:14N 22°08' E 114°09'17 9.7
2015-Apr-22 13:28N 22°07' E 113°50'1112.4
2015-Apr-22 12:33N 22°18' E 113°48'20 1.8
2015-Apr-22 01:12N 22°37' E 113°42'1614.7
2015-Apr-22 00:07N 22°22' E 113°47'712.9
2015-Apr-21 23:33N 22°15' E 113°48'2110.3
2015-Apr-21 21:30N 21°57' E 114°01'1916.0
2015-Apr-21 20:19N 21°59' E 114°21'2016.4
2015-Apr-21 19:06N 22°03' E 114°42'29116.2
2015-Apr-21 01:12N 24°25' E 119°18'35914.6
2015-Apr-20 00:32N 29°40' E 122°31'1212.5
2015-Apr-19 23:33N 29°45' E 122°18'1010.4
2015-Apr-19 22:33N 29°54' E 122°11'7 5.8
2015-Apr-19 21:17N 29°54' E 122°02'0 0.0
2015-Apr-19 20:29N 29°54' E 122°02'0 0.0
2015-Apr-19 19:29N 29°54' E 122°02'0 0.0
2015-Apr-19 18:17N 29°54' E 122°02'0 0.0
2015-Apr-19 17:29N 29°54' E 122°02'0 0.0
2015-Apr-19 16:29N 29°54' E 122°02'0 0.0
2015-Apr-19 15:29N 29°54' E 122°02'0 0.0
2015-Apr-19 14:29N 29°54' E 122°02'0 0.0
2015-Apr-19 13:28N 29°54' E 122°02'0 0.0
2015-Apr-19 12:29N 29°54' E 122°02'0 0.0
2015-Apr-19 11:33N 29°54' E 122°02'5 4.7
2015-Apr-19 10:33N 29°55' E 122°07'9 9.0
2015-Apr-19 09:33N 29°49' E 122°14'8 8.3
2015-Apr-19 08:33N 29°44' E 122°22'8 8.1
2015-Apr-19 07:33N 29°39' E 122°30'0 0.0
2015-Apr-19 03:28N 29°39' E 122°30'0 0.1
2015-Apr-18 21:28N 29°39' E 122°30'0 0.0
2015-Apr-18 20:22N 29°39' E 122°30'0 0.1
2015-Apr-18 16:22N 29°39' E 122°30'  
Track history (hours):
 
Tides and Currents Weather Stations Pressure Air Temp Water Temp Dewpoint Dewpoint Depression Visibility Wind Speed Wind Dir Waves Ship Positions

MSC Maeva

Last reported at 2015-Apr-28 10:10 UTC. Time now 2015-Apr-28 11:54 UTC.
Position N 01°16' E 103°46'.

Type: Ship (hazmat cat A). MMSI: 371851000.

Date/timePositionNaut miles runAvg speedWind from/ knotsBaromVisibWave heightAir tempDewpointWater temp
2015-Apr-28 10:10N 01°16' E 103°46'0 0.0
2015-Apr-28 09:16N 01°16' E 103°46'0 0.0
2015-Apr-28 08:28N 01°16' E 103°46'0 0.0
2015-Apr-28 07:33N 01°16' E 103°46'6 5.4
2015-Apr-28 06:29N 01°13' E 103°41'11 0.5
2015-Apr-27 08:15N 01°12' E 103°53'811.3
2015-Apr-27 07:33N 01°15' E 103°60'  
2015-Apr-23 13:15N 22°08' E 114°15'1310.7
2015-Apr-23 12:04N 22°17' E 114°06'16 9.7
2015-Apr-23 10:28N 22°27' E 113°53'1 0.1
2015-Apr-22 19:04N 22°28' E 113°52'4 7.4
2015-Apr-22 18:33N 22°24' E 113°54'11 9.2
2015-Apr-22 17:20N 22°20' E 114°05'910.8
2015-Apr-22 16:32N 22°13' E 114°10'5 4.2
2015-Apr-22 15:14N 22°08' E 114°09'17 9.7
2015-Apr-22 13:28N 22°07' E 113°50'1112.4
2015-Apr-22 12:33N 22°18' E 113°48'20 1.8
2015-Apr-22 01:12N 22°37' E 113°42'1614.7
2015-Apr-22 00:07N 22°22' E 113°47'712.9
2015-Apr-21 23:33N 22°15' E 113°48'2110.3
2015-Apr-21 21:30N 21°57' E 114°01'1916.0
2015-Apr-21 20:19N 21°59' E 114°21'2016.4
2015-Apr-21 19:06N 22°03' E 114°42'29116.2
2015-Apr-21 01:12N 24°25' E 119°18'35914.6
2015-Apr-20 00:32N 29°40' E 122°31'1212.5
2015-Apr-19 23:33N 29°45' E 122°18'1010.4
2015-Apr-19 22:33N 29°54' E 122°11'7 5.8
2015-Apr-19 21:17N 29°54' E 122°02'0 0.0
2015-Apr-19 20:29N 29°54' E 122°02'0 0.0
2015-Apr-19 19:29N 29°54' E 122°02'0 0.0
2015-Apr-19 18:17N 29°54' E 122°02'0 0.0
2015-Apr-19 17:29N 29°54' E 122°02'0 0.0
2015-Apr-19 16:29N 29°54' E 122°02'0 0.0
2015-Apr-19 15:29N 29°54' E 122°02'0 0.0
2015-Apr-19 14:29N 29°54' E 122°02'0 0.0
2015-Apr-19 13:28N 29°54' E 122°02'0 0.0
2015-Apr-19 12:29N 29°54' E 122°02'0 0.0
2015-Apr-19 11:33N 29°54' E 122°02'5 4.7
2015-Apr-19 10:33N 29°55' E 122°07'9 9.0
2015-Apr-19 09:33N 29°49' E 122°14'8 8.3
2015-Apr-19 08:33N 29°44' E 122°22'8 8.1
2015-Apr-19 07:33N 29°39' E 122°30'0 0.0
2015-Apr-19 03:28N 29°39' E 122°30'0 0.1
2015-Apr-18 21:28N 29°39' E 122°30'0 0.0
2015-Apr-18 20:22N 29°39' E 122°30'0 0.1
2015-Apr-18 16:22N 29°39' E 122°30'  

Dump ship's entire track history